createdAt,value
2019-01-04T00:00:46.469Z,1027.53
2019-01-04T00:01:46.440Z,1027.55
2019-01-04T00:02:46.414Z,1027.51
2019-01-04T00:03:46.385Z,1027.54
2019-01-04T00:04:46.354Z,1027.56
2019-01-04T00:05:46.326Z,1027.56
2019-01-04T00:06:46.299Z,1027.57
2019-01-04T00:07:46.269Z,1027.59
2019-01-04T00:08:46.242Z,1027.61
2019-01-04T00:09:46.213Z,1027.61
2019-01-04T00:10:46.185Z,1027.55
2019-01-04T00:11:46.161Z,1027.61
2019-01-04T00:12:46.131Z,1027.58
2019-01-04T00:13:46.101Z,1027.56
2019-01-04T00:14:46.073Z,1027.59
2019-01-04T00:15:46.046Z,1027.58
2019-01-04T00:16:46.014Z,1027.61
2019-01-04T00:17:45.985Z,1027.58
2019-01-04T00:18:45.957Z,1027.61
2019-01-04T00:19:45.928Z,1027.60
2019-01-04T00:20:45.899Z,1027.65
2019-01-04T00:21:45.875Z,1027.63
2019-01-04T00:22:45.843Z,1027.66
2019-01-04T00:23:45.816Z,1027.65
2019-01-04T00:24:45.785Z,1027.69
2019-01-04T00:25:45.757Z,1027.71
2019-01-04T00:26:45.730Z,1027.70
2019-01-04T00:27:45.701Z,1027.73
2019-01-04T00:28:45.671Z,1027.75
2019-01-04T00:29:45.644Z,1027.73
2019-01-04T00:30:45.616Z,1027.72
2019-01-04T00:31:45.588Z,1027.69
2019-01-04T00:32:45.558Z,1027.64
2019-01-04T00:33:45.531Z,1027.61
2019-01-04T00:34:45.501Z,1027.59
2019-01-04T00:35:45.475Z,1027.62
2019-01-04T00:36:45.444Z,1027.60
2019-01-04T00:37:45.418Z,1027.59
2019-01-04T00:38:45.388Z,1027.62
2019-01-04T00:39:45.363Z,1027.58
2019-01-04T00:40:45.332Z,1027.59
2019-01-04T00:41:45.304Z,1027.62
2019-01-04T00:42:45.275Z,1027.62
2019-01-04T00:43:45.249Z,1027.60
2019-01-04T00:44:45.219Z,1027.55
2019-01-04T00:45:45.190Z,1027.54
2019-01-04T00:46:45.162Z,1027.54
2019-01-04T00:47:45.133Z,1027.53
2019-01-04T00:48:45.104Z,1027.56
2019-01-04T00:49:45.078Z,1027.57
2019-01-04T00:50:45.048Z,1027.56
2019-01-04T00:51:45.020Z,1027.57
2019-01-04T00:52:44.992Z,1027.56
2019-01-04T00:53:44.966Z,1027.56
2019-01-04T00:54:44.936Z,1027.55
2019-01-04T00:55:44.909Z,1027.51
2019-01-04T00:56:44.879Z,1027.48
2019-01-04T00:57:44.849Z,1027.50
2019-01-04T00:58:44.822Z,1027.49
2019-01-04T00:59:44.800Z,1027.49
2019-01-04T01:00:44.765Z,1027.42
2019-01-04T01:01:44.738Z,1027.40
2019-01-04T01:02:44.707Z,1027.36
2019-01-04T01:03:44.680Z,1027.41
2019-01-04T01:04:44.650Z,1027.42
2019-01-04T01:05:44.622Z,1027.43
2019-01-04T01:06:44.594Z,1027.41
2019-01-04T01:07:44.566Z,1027.46
2019-01-04T01:08:44.538Z,1027.45
2019-01-04T01:09:44.509Z,1027.43
2019-01-04T01:10:44.480Z,1027.41
2019-01-04T01:11:44.450Z,1027.41
2019-01-04T01:12:44.422Z,1027.39
2019-01-04T01:13:44.393Z,1027.41
2019-01-04T01:14:44.366Z,1027.37
2019-01-04T01:15:44.337Z,1027.38
2019-01-04T01:16:44.307Z,1027.38
2019-01-04T01:17:44.279Z,1027.36
2019-01-04T01:18:44.251Z,1027.30
2019-01-04T01:19:44.222Z,1027.30
2019-01-04T01:20:44.194Z,1027.28
2019-01-04T01:21:44.164Z,1027.21
2019-01-04T01:22:44.137Z,1027.27
2019-01-04T01:23:44.107Z,1027.31
2019-01-04T01:24:44.078Z,1027.33
2019-01-04T01:25:44.050Z,1027.34
2019-01-04T01:26:44.020Z,1027.32
2019-01-04T01:27:43.992Z,1027.34
2019-01-04T01:28:43.967Z,1027.32
2019-01-04T01:29:43.935Z,1027.28
2019-01-04T01:30:43.907Z,1027.33
2019-01-04T01:31:43.877Z,1027.31
2019-01-04T01:32:43.847Z,1027.30
2019-01-04T01:33:43.819Z,1027.30
2019-01-04T01:34:43.792Z,1027.27
2019-01-04T01:35:43.762Z,1027.28
2019-01-04T01:36:43.739Z,1027.30
2019-01-04T01:37:43.705Z,1027.29
2019-01-04T01:38:43.677Z,1027.35
2019-01-04T01:39:43.649Z,1027.33
2019-01-04T01:40:43.618Z,1027.35
2019-01-04T01:41:43.589Z,1027.34
2019-01-04T01:42:43.561Z,1027.39
2019-01-04T01:43:43.532Z,1027.35
2019-01-04T01:44:43.503Z,1027.34
2019-01-04T01:45:43.475Z,1027.37
2019-01-04T01:46:43.446Z,1027.34
2019-01-04T01:47:43.417Z,1027.36
2019-01-04T01:48:43.388Z,1027.30
2019-01-04T01:49:43.364Z,1027.30
2019-01-04T01:50:43.331Z,1027.25
2019-01-04T01:51:43.303Z,1027.21
2019-01-04T01:52:43.273Z,1027.22
2019-01-04T01:53:43.244Z,1027.27
2019-01-04T01:54:43.217Z,1027.28
2019-01-04T01:55:43.187Z,1027.30
2019-01-04T01:56:43.157Z,1027.31
2019-01-04T01:57:43.129Z,1027.30
2019-01-04T01:58:43.100Z,1027.31
2019-01-04T01:59:43.072Z,1027.33
2019-01-04T02:00:43.043Z,1027.27
2019-01-04T02:01:43.013Z,1027.25
2019-01-04T02:02:42.984Z,1027.24
2019-01-04T02:03:42.957Z,1027.24
2019-01-04T02:04:42.934Z,1027.21
2019-01-04T02:05:42.897Z,1027.21
2019-01-04T02:06:42.870Z,1027.20
2019-01-04T02:07:42.842Z,1027.20
2019-01-04T02:08:42.810Z,1027.14
2019-01-04T02:09:42.783Z,1027.15
2019-01-04T02:10:42.756Z,1027.21
2019-01-04T02:11:42.725Z,1027.14
2019-01-04T02:12:42.695Z,1027.12
2019-01-04T02:13:42.667Z,1027.18
2019-01-04T02:14:42.640Z,1027.16
2019-01-04T02:15:42.609Z,1027.13
2019-01-04T02:16:42.580Z,1027.15
2019-01-04T02:17:42.565Z,1027.16
2019-01-04T02:18:42.523Z,1027.15
2019-01-04T02:19:42.494Z,1027.14
2019-01-04T02:20:42.464Z,1027.16
2019-01-04T02:21:42.436Z,1027.20
2019-01-04T02:22:42.410Z,1027.16
2019-01-04T02:23:42.378Z,1027.22
2019-01-04T02:24:42.348Z,1027.17
2019-01-04T02:25:42.319Z,1027.16
2019-01-04T02:26:42.295Z,1027.16
2019-01-04T02:27:42.263Z,1027.16
2019-01-04T02:28:42.233Z,1027.13
2019-01-04T02:29:42.204Z,1027.12
2019-01-04T02:30:42.176Z,1027.11
2019-01-04T02:31:42.147Z,1027.14
2019-01-04T02:32:42.118Z,1027.12
2019-01-04T02:33:42.089Z,1027.10
2019-01-04T02:34:42.062Z,1027.13
2019-01-04T02:35:42.034Z,1027.09
2019-01-04T02:36:42.002Z,1027.09
2019-01-04T02:37:41.978Z,1027.10
2019-01-04T02:38:41.945Z,1027.12
2019-01-04T02:39:41.918Z,1027.10
2019-01-04T02:40:41.889Z,1027.11
2019-01-04T02:41:41.860Z,1027.11
2019-01-04T02:42:41.829Z,1027.12
2019-01-04T02:43:41.817Z,1027.03
2019-01-04T02:44:41.772Z,1027.04
2019-01-04T02:45:41.744Z,1027.03
2019-01-04T02:46:41.718Z,1027.00
2019-01-04T02:47:41.686Z,1026.99
2019-01-04T02:48:41.663Z,1026.97
2019-01-04T02:49:41.630Z,1026.99
2019-01-04T02:50:41.603Z,1026.97
2019-01-04T02:51:41.573Z,1026.99
2019-01-04T02:52:41.542Z,1027.02
2019-01-04T02:53:41.514Z,1027.02
2019-01-04T02:54:41.486Z,1026.99
2019-01-04T02:55:41.458Z,1027.02
2019-01-04T02:56:41.428Z,1027.04
2019-01-04T02:57:41.406Z,1027.04
2019-01-04T02:58:41.375Z,1027.04
2019-01-04T02:59:41.346Z,1027.00
2019-01-04T03:00:41.315Z,1027.04
2019-01-04T03:01:41.286Z,1027.05
2019-01-04T03:02:41.259Z,1027.07
2019-01-04T03:03:41.231Z,1027.03
2019-01-04T03:04:41.201Z,1027.04
2019-01-04T03:05:41.174Z,1027.04
2019-01-04T03:06:41.145Z,1027.03
2019-01-04T03:07:41.118Z,1027.00
2019-01-04T03:08:41.094Z,1027.01
2019-01-04T03:09:41.060Z,1026.97
2019-01-04T03:10:41.033Z,1027.00
2019-01-04T03:11:41.006Z,1026.98
2019-01-04T03:12:40.977Z,1026.96
2019-01-04T03:13:40.948Z,1026.93
2019-01-04T03:14:40.920Z,1026.92
2019-01-04T03:15:40.897Z,1026.92
2019-01-04T03:16:40.864Z,1026.91
2019-01-04T03:17:40.837Z,1026.83
2019-01-04T03:18:40.809Z,1026.80
2019-01-04T03:19:40.779Z,1026.78
2019-01-04T03:20:40.751Z,1026.75
2019-01-04T03:21:40.724Z,1026.74
2019-01-04T03:22:40.747Z,1026.69
2019-01-04T03:23:40.668Z,1026.70
2019-01-04T03:24:40.640Z,1026.64
2019-01-04T03:25:40.615Z,1026.66
2019-01-04T03:26:40.584Z,1026.61
2019-01-04T03:27:40.560Z,1026.59
2019-01-04T03:28:40.528Z,1026.57
2019-01-04T03:29:40.502Z,1026.50
2019-01-04T03:30:40.478Z,1026.53
2019-01-04T03:31:40.445Z,1026.47
2019-01-04T03:32:40.418Z,1026.52
2019-01-04T03:33:40.389Z,1026.46
2019-01-04T03:34:40.362Z,1026.45
2019-01-04T03:35:40.334Z,1026.37
2019-01-04T03:36:40.305Z,1026.37
2019-01-04T03:37:40.278Z,1026.35
2019-01-04T03:38:40.249Z,1026.35
2019-01-04T03:39:40.223Z,1026.29
2019-01-04T03:40:40.201Z,1026.27
2019-01-04T03:41:40.167Z,1026.26
2019-01-04T03:42:40.139Z,1026.25
2019-01-04T03:43:40.113Z,1026.26
2019-01-04T03:44:40.085Z,1026.21
2019-01-04T03:45:40.056Z,1026.24
2019-01-04T03:46:40.028Z,1026.21
2019-01-04T03:47:40.002Z,1026.24
2019-01-04T03:48:39.973Z,1026.18
2019-01-04T03:49:39.946Z,1026.14
2019-01-04T03:50:39.924Z,1026.06
2019-01-04T03:51:39.893Z,1026.05
2019-01-04T03:52:39.862Z,1026.01
2019-01-04T03:53:39.835Z,1026.07
2019-01-04T03:54:39.808Z,1025.90
2019-01-04T03:55:39.780Z,1025.95
2019-01-04T03:56:39.754Z,1025.91
2019-01-04T03:57:39.724Z,1025.97
2019-01-04T03:58:39.698Z,1025.91
2019-01-04T03:59:39.668Z,1025.89
2019-01-04T04:00:39.641Z,1025.99
2019-01-04T04:01:39.616Z,1025.91
2019-01-04T04:02:39.592Z,1025.93
2019-01-04T04:03:39.560Z,1025.87
2019-01-04T04:04:39.531Z,1025.97
2019-01-04T04:05:39.504Z,1025.95
2019-01-04T04:06:39.477Z,1025.93
2019-01-04T04:07:39.450Z,1025.94
2019-01-04T04:08:39.421Z,1025.95
2019-01-04T04:09:39.394Z,1025.91
2019-01-04T04:10:39.367Z,1025.94
2019-01-04T04:11:39.339Z,1025.92
2019-01-04T04:12:39.311Z,1025.91
2019-01-04T04:13:39.287Z,1025.94
2019-01-04T04:14:39.256Z,1025.88
2019-01-04T04:15:39.231Z,1025.80
2019-01-04T04:16:39.201Z,1025.85
2019-01-04T04:17:39.173Z,1025.80
2019-01-04T04:18:39.148Z,1025.87
2019-01-04T04:19:39.120Z,1025.80
2019-01-04T04:20:39.091Z,1025.80
2019-01-04T04:21:39.064Z,1025.83
2019-01-04T04:22:39.036Z,1025.84
2019-01-04T04:23:39.010Z,1025.80
2019-01-04T04:24:38.981Z,1025.75
2019-01-04T04:25:38.954Z,1025.77
2019-01-04T04:26:38.926Z,1025.73
2019-01-04T04:27:38.901Z,1025.74
2019-01-04T04:28:38.871Z,1025.65
2019-01-04T04:29:38.845Z,1025.63
2019-01-04T04:30:38.819Z,1025.60
2019-01-04T04:31:38.792Z,1025.57
2019-01-04T04:32:38.763Z,1025.54
2019-01-04T04:33:38.736Z,1025.47
2019-01-04T04:34:38.707Z,1025.49
2019-01-04T04:35:38.680Z,1025.52
2019-01-04T04:36:38.652Z,1025.39
2019-01-04T04:37:38.626Z,1025.43
2019-01-04T04:38:38.600Z,1025.40
2019-01-04T04:39:38.571Z,1025.31
2019-01-04T04:40:38.544Z,1025.27
2019-01-04T04:41:38.515Z,1025.21
2019-01-04T04:42:38.488Z,1025.16
2019-01-04T04:43:38.461Z,1025.13
2019-01-04T04:44:38.435Z,1025.11
2019-01-04T04:45:38.406Z,1025.18
2019-01-04T04:46:38.381Z,1025.24
2019-01-04T04:47:38.351Z,1025.21
2019-01-04T04:48:38.325Z,1025.19
2019-01-04T04:49:38.297Z,1025.24
2019-01-04T04:50:38.275Z,1025.15
2019-01-04T04:51:38.244Z,1025.20
2019-01-04T04:52:38.214Z,1025.14
2019-01-04T04:53:38.188Z,1025.10
2019-01-04T04:54:38.160Z,1025.13
2019-01-04T04:55:38.134Z,1025.14
2019-01-04T04:56:38.106Z,1025.16
2019-01-04T04:57:38.079Z,1025.10
2019-01-04T04:58:38.051Z,1025.20
2019-01-04T04:59:38.036Z,1025.16
2019-01-04T05:00:37.996Z,1025.19
2019-01-04T05:01:37.970Z,1025.21
2019-01-04T05:02:37.943Z,1025.22
2019-01-04T05:03:37.917Z,1025.17
2019-01-04T05:04:37.886Z,1025.17
2019-01-04T05:05:37.861Z,1025.06
2019-01-04T05:06:37.833Z,1025.07
2019-01-04T05:07:37.807Z,1025.02
2019-01-04T05:08:37.780Z,1025.04
2019-01-04T05:09:37.754Z,1025.01
2019-01-04T05:10:37.725Z,1025.04
2019-01-04T05:11:37.697Z,1025.11
2019-01-04T05:12:37.669Z,1025.12
2019-01-04T05:13:37.642Z,1025.16
2019-01-04T05:14:37.638Z,1025.15
2019-01-04T05:15:37.587Z,1025.12
2019-01-04T05:16:37.561Z,1025.06
2019-01-04T05:17:37.533Z,1025.10
2019-01-04T05:18:37.505Z,1025.02
2019-01-04T05:19:37.480Z,1025.09
2019-01-04T05:20:37.450Z,1025.06
2019-01-04T05:21:37.425Z,1025.07
2019-01-04T05:22:37.399Z,1025.07
2019-01-04T05:23:37.369Z,1025.02
2019-01-04T05:24:37.340Z,1025.04
2019-01-04T05:25:37.315Z,1024.92
2019-01-04T05:26:37.288Z,1025.01
2019-01-04T05:27:37.267Z,1025.00
2019-01-04T05:28:37.233Z,1024.98
2019-01-04T05:29:37.204Z,1024.95
2019-01-04T05:30:37.179Z,1024.97
2019-01-04T05:31:37.151Z,1024.97
2019-01-04T05:32:37.123Z,1025.02
2019-01-04T05:33:37.097Z,1024.98
2019-01-04T05:34:37.069Z,1024.93
2019-01-04T05:35:37.041Z,1024.96
2019-01-04T05:36:37.015Z,1024.98
2019-01-04T05:37:36.987Z,1024.98
2019-01-04T05:38:36.960Z,1025.01
2019-01-04T05:39:36.932Z,1025.03
2019-01-04T05:40:36.905Z,1025.04
2019-01-04T05:41:36.878Z,1025.05
2019-01-04T05:42:36.850Z,1025.00
2019-01-04T05:43:36.827Z,1025.02
2019-01-04T05:44:36.796Z,1025.02
2019-01-04T05:45:36.768Z,1025.05
2019-01-04T05:46:36.743Z,1025.05
2019-01-04T05:47:36.715Z,1025.04
2019-01-04T05:48:36.686Z,1025.03
2019-01-04T05:49:36.660Z,1025.02
2019-01-04T05:50:36.632Z,1025.01
2019-01-04T05:51:36.604Z,1024.95
2019-01-04T05:52:36.576Z,1024.91
2019-01-04T05:53:36.550Z,1024.90
2019-01-04T05:54:36.521Z,1024.91
2019-01-04T05:55:36.494Z,1024.87
2019-01-04T05:56:36.467Z,1024.88
2019-01-04T05:57:36.441Z,1024.84
2019-01-04T05:58:36.413Z,1024.81
2019-01-04T05:59:36.386Z,1024.83
2019-01-04T06:00:36.363Z,1024.79
2019-01-04T06:01:36.331Z,1024.84
2019-01-04T06:02:36.308Z,1024.81
2019-01-04T06:03:36.276Z,1024.82
2019-01-04T06:04:36.248Z,1024.84
2019-01-04T06:05:36.220Z,1024.85
2019-01-04T06:06:36.196Z,1024.84
2019-01-04T06:07:36.167Z,1024.80
2019-01-04T06:08:36.140Z,1024.78
2019-01-04T06:09:36.118Z,1024.76
2019-01-04T06:10:36.085Z,1024.78
2019-01-04T06:11:36.057Z,1024.84
2019-01-04T06:12:36.035Z,1024.78
2019-01-04T06:13:36.001Z,1024.70
2019-01-04T06:14:35.975Z,1024.69
2019-01-04T06:15:35.948Z,1024.68
2019-01-04T06:16:35.919Z,1024.71
2019-01-04T06:17:35.891Z,1024.72
2019-01-04T06:18:35.865Z,1024.75
2019-01-04T06:19:35.838Z,1024.75
2019-01-04T06:20:35.809Z,1024.66
2019-01-04T06:21:35.782Z,1024.68
2019-01-04T06:22:35.755Z,1024.73
2019-01-04T06:23:35.729Z,1024.75
2019-01-04T06:24:35.700Z,1024.80
2019-01-04T06:25:35.680Z,1024.73
2019-01-04T06:26:35.646Z,1024.75
2019-01-04T06:27:35.619Z,1024.69
2019-01-04T06:28:35.589Z,1024.71
2019-01-04T06:29:35.563Z,1024.76
2019-01-04T06:30:35.535Z,1024.82
2019-01-04T06:31:35.509Z,1024.74
2019-01-04T06:32:35.481Z,1024.84
2019-01-04T06:33:35.452Z,1024.79
2019-01-04T06:34:35.426Z,1024.76
2019-01-04T06:35:35.399Z,1024.84
2019-01-04T06:36:35.375Z,1024.83
2019-01-04T06:37:35.342Z,1024.72
2019-01-04T06:38:35.317Z,1024.67
2019-01-04T06:39:35.289Z,1024.68
2019-01-04T06:40:35.261Z,1024.72
2019-01-04T06:41:35.232Z,1024.62
2019-01-04T06:42:35.206Z,1024.56
2019-01-04T06:43:35.179Z,1024.54
2019-01-04T06:44:35.150Z,1024.55
2019-01-04T06:45:35.179Z,1024.57
2019-01-04T06:46:35.097Z,1024.54
2019-01-04T06:47:35.069Z,1024.53
2019-01-04T06:48:35.039Z,1024.52
2019-01-04T06:49:35.014Z,1024.55
2019-01-04T06:50:34.985Z,1024.55
2019-01-04T06:51:34.965Z,1024.62
2019-01-04T06:52:34.930Z,1024.50
2019-01-04T06:53:34.903Z,1024.53
2019-01-04T06:54:34.877Z,1024.46
2019-01-04T06:55:34.849Z,1024.42
2019-01-04T06:56:34.820Z,1024.45
2019-01-04T06:57:34.793Z,1024.46
2019-01-04T06:58:34.767Z,1024.46
2019-01-04T06:59:34.739Z,1024.46
2019-01-04T07:00:34.711Z,1024.49
2019-01-04T07:01:34.686Z,1024.48
2019-01-04T07:02:34.656Z,1024.45
2019-01-04T07:03:34.629Z,1024.43
2019-01-04T07:04:34.604Z,1024.39
2019-01-04T07:05:34.576Z,1024.40
2019-01-04T07:06:34.551Z,1024.36
2019-01-04T07:07:34.520Z,1024.34
2019-01-04T07:08:34.491Z,1024.31
2019-01-04T07:09:34.464Z,1024.24
2019-01-04T07:10:34.437Z,1024.24
2019-01-04T07:11:34.411Z,1024.28
2019-01-04T07:12:34.387Z,1024.24
2019-01-04T07:13:34.360Z,1024.25
2019-01-04T07:14:34.328Z,1024.22
2019-01-04T07:15:34.303Z,1024.24
2019-01-04T07:16:34.274Z,1024.27
2019-01-04T07:17:34.245Z,1024.30
2019-01-04T07:18:34.218Z,1024.30
2019-01-04T07:19:34.193Z,1024.28
2019-01-04T07:20:34.164Z,1024.30
2019-01-04T07:21:34.136Z,1024.27
2019-01-04T07:22:34.110Z,1024.28
2019-01-04T07:23:34.082Z,1024.22
2019-01-04T07:24:34.056Z,1024.25
2019-01-04T07:25:34.027Z,1024.29
2019-01-04T07:26:33.999Z,1024.34
2019-01-04T07:27:33.973Z,1024.38
2019-01-04T07:28:33.946Z,1024.37
2019-01-04T07:29:33.918Z,1024.27
2019-01-04T07:30:33.892Z,1024.36
2019-01-04T07:31:33.863Z,1024.33
2019-01-04T07:32:33.835Z,1024.29
2019-01-04T07:33:33.809Z,1024.31
2019-01-04T07:34:33.782Z,1024.30
2019-01-04T07:35:33.756Z,1024.33
2019-01-04T07:36:33.729Z,1024.25
2019-01-04T07:37:33.700Z,1024.25
2019-01-04T07:38:33.672Z,1024.23
2019-01-04T07:39:33.645Z,1024.20
2019-01-04T07:40:33.617Z,1024.27
2019-01-04T07:41:33.591Z,1024.18
2019-01-04T07:42:33.563Z,1024.17
2019-01-04T07:43:33.537Z,1024.13
2019-01-04T07:44:33.509Z,1024.16
2019-01-04T07:45:33.482Z,1024.25
2019-01-04T07:46:33.459Z,1024.31
2019-01-04T07:47:33.432Z,1024.26
2019-01-04T07:48:33.402Z,1024.28
2019-01-04T07:49:33.373Z,1024.27
2019-01-04T07:50:33.346Z,1024.26
2019-01-04T07:51:33.319Z,1024.27
2019-01-04T07:52:33.292Z,1024.26
2019-01-04T07:53:33.265Z,1024.30
2019-01-04T07:54:33.239Z,1024.27
2019-01-04T07:55:33.211Z,1024.14
2019-01-04T07:56:33.184Z,1024.10
2019-01-04T07:57:33.158Z,1024.11
2019-01-04T07:58:33.129Z,1024.09
2019-01-04T07:59:33.103Z,1024.10
2019-01-04T08:00:33.077Z,1024.11
2019-01-04T08:01:33.047Z,1023.99
2019-01-04T08:02:33.022Z,1024.06
2019-01-04T08:03:32.995Z,1024.10
2019-01-04T08:04:32.967Z,1024.04
2019-01-04T08:05:32.940Z,1024.04
2019-01-04T08:06:32.913Z,1024.06
2019-01-04T08:07:32.886Z,1024.00
2019-01-04T08:08:32.857Z,1023.96
2019-01-04T08:09:32.831Z,1023.87
2019-01-04T08:10:32.804Z,1023.98
2019-01-04T08:11:32.778Z,1023.86
2019-01-04T08:12:32.748Z,1023.88
2019-01-04T08:13:32.724Z,1023.88
2019-01-04T08:14:32.695Z,1023.89
2019-01-04T08:15:32.670Z,1023.83
2019-01-04T08:16:32.641Z,1023.81
2019-01-04T08:17:32.614Z,1023.88
2019-01-04T08:18:32.589Z,1023.78
2019-01-04T08:19:32.561Z,1023.76
2019-01-04T08:20:32.534Z,1023.80
2019-01-04T08:21:32.509Z,1023.77
2019-01-04T08:22:32.480Z,1023.76
2019-01-04T08:23:32.455Z,1023.70
2019-01-04T08:24:32.425Z,1023.70
2019-01-04T08:25:32.399Z,1023.68
2019-01-04T08:26:32.374Z,1023.67
2019-01-04T08:27:32.351Z,1023.60
2019-01-04T08:28:32.320Z,1023.70
2019-01-04T08:29:32.293Z,1023.60
2019-01-04T08:30:32.266Z,1023.65
2019-01-04T08:31:32.238Z,1023.65
2019-01-04T08:32:32.212Z,1023.64
2019-01-04T08:33:32.184Z,1023.62
2019-01-04T08:34:32.157Z,1023.61
2019-01-04T08:35:32.131Z,1023.63
2019-01-04T08:36:32.104Z,1023.61
2019-01-04T08:37:32.111Z,1023.62
2019-01-04T08:38:32.050Z,1023.61
2019-01-04T08:39:32.027Z,1023.63
2019-01-04T08:40:31.996Z,1023.60
2019-01-04T08:41:31.969Z,1023.57
2019-01-04T08:42:31.943Z,1023.55
2019-01-04T08:43:31.917Z,1023.49
2019-01-04T08:44:31.889Z,1023.54
2019-01-04T08:45:31.863Z,1023.45
2019-01-04T08:46:31.834Z,1023.55
2019-01-04T08:47:31.807Z,1023.55
2019-01-04T08:48:31.780Z,1023.51
2019-01-04T08:49:31.755Z,1023.53
2019-01-04T08:50:31.728Z,1023.54
2019-01-04T08:51:31.700Z,1023.51
2019-01-04T08:52:31.672Z,1023.50
2019-01-04T08:53:31.647Z,1023.47
2019-01-04T08:54:31.619Z,1023.42
2019-01-04T08:55:31.593Z,1023.45
2019-01-04T08:56:31.565Z,1023.47
2019-01-04T08:57:31.540Z,1023.41
2019-01-04T08:58:31.513Z,1023.44
2019-01-04T08:59:31.486Z,1023.47
2019-01-04T09:00:31.459Z,1023.46
2019-01-04T09:01:31.433Z,1023.44
2019-01-04T09:02:31.406Z,1023.44
2019-01-04T09:03:31.379Z,1023.46
2019-01-04T09:04:31.351Z,1023.46
2019-01-04T09:05:31.324Z,1023.47
2019-01-04T09:06:31.300Z,1023.43
2019-01-04T09:07:31.273Z,1023.46
2019-01-04T09:08:31.244Z,1023.43
2019-01-04T09:09:31.218Z,1023.44
2019-01-04T09:10:31.192Z,1023.37
2019-01-04T09:11:31.167Z,1023.37
2019-01-04T09:12:31.137Z,1023.40
2019-01-04T09:13:31.112Z,1023.37
2019-01-04T09:14:31.087Z,1023.40
2019-01-04T09:15:31.059Z,1023.36
2019-01-04T09:16:31.031Z,1023.38
2019-01-04T09:17:31.005Z,1023.27
2019-01-04T09:18:30.979Z,1023.32
2019-01-04T09:19:30.951Z,1023.32
2019-01-04T09:20:30.925Z,1023.30
2019-01-04T09:21:30.900Z,1023.28
2019-01-04T09:22:30.871Z,1023.20
2019-01-04T09:23:30.846Z,1023.19
2019-01-04T09:24:30.819Z,1023.18
2019-01-04T09:25:30.792Z,1023.14
2019-01-04T09:26:30.766Z,1023.14
2019-01-04T09:27:30.740Z,1023.06
2019-01-04T09:28:30.711Z,1023.15
2019-01-04T09:29:30.688Z,1023.13
2019-01-04T09:30:30.663Z,1023.17
2019-01-04T09:31:30.635Z,1023.16
2019-01-04T09:32:30.605Z,1023.21
2019-01-04T09:33:30.580Z,1023.16
2019-01-04T09:34:30.555Z,1023.16
2019-01-04T09:35:30.526Z,1023.19
2019-01-04T09:36:30.505Z,1023.10
2019-01-04T09:37:30.472Z,1023.13
2019-01-04T09:38:30.448Z,1023.09
2019-01-04T09:39:30.421Z,1023.05
2019-01-04T09:40:30.392Z,1023.05
2019-01-04T09:41:30.376Z,1022.98
2019-01-04T09:42:30.341Z,1022.95
2019-01-04T09:43:30.314Z,1022.90
2019-01-04T09:44:30.288Z,1022.90
2019-01-04T09:45:30.260Z,1022.89
2019-01-04T09:46:31.175Z,1022.88
2019-01-04T09:47:30.208Z,1022.89
2019-01-04T09:48:30.182Z,1022.95
2019-01-04T09:49:30.155Z,1022.96
2019-01-04T09:50:30.129Z,1022.76
2019-01-04T09:51:30.114Z,1022.83
2019-01-04T09:52:30.075Z,1022.78
2019-01-04T09:53:30.049Z,1022.77
2019-01-04T09:54:30.022Z,1022.77
2019-01-04T09:55:29.996Z,1022.79
2019-01-04T09:56:29.969Z,1022.79
2019-01-04T09:57:29.944Z,1022.83
2019-01-04T09:58:29.916Z,1022.79
2019-01-04T09:59:29.895Z,1022.75
2019-01-04T10:00:29.866Z,1022.77
2019-01-04T10:01:29.838Z,1022.79
2019-01-04T10:02:29.813Z,1022.79
2019-01-04T10:03:29.785Z,1022.79
2019-01-04T10:04:29.760Z,1022.80
2019-01-04T10:05:29.732Z,1022.83
2019-01-04T10:06:29.706Z,1022.80
2019-01-04T10:07:29.680Z,1022.82
2019-01-04T10:08:29.652Z,1022.82
2019-01-04T10:09:29.626Z,1022.87
2019-01-04T10:10:29.603Z,1022.89
2019-01-04T10:11:29.574Z,1022.83
2019-01-04T10:12:29.549Z,1022.80
2019-01-04T10:13:29.521Z,1022.80
2019-01-04T10:14:29.495Z,1022.75
2019-01-04T10:15:29.477Z,1022.72
2019-01-04T10:16:29.442Z,1022.71
2019-01-04T10:17:29.417Z,1022.67
2019-01-04T10:18:29.391Z,1022.65
2019-01-04T10:19:29.365Z,1022.53
2019-01-04T10:20:29.338Z,1022.52
2019-01-04T10:21:29.310Z,1022.44
2019-01-04T10:22:29.285Z,1022.42
2019-01-04T10:23:29.260Z,1022.38
2019-01-04T10:24:29.231Z,1022.36
2019-01-04T10:25:29.206Z,1022.29
2019-01-04T10:26:29.181Z,1022.18
2019-01-04T10:27:29.154Z,1022.15
2019-01-04T10:28:29.127Z,1022.11
2019-01-04T10:29:29.102Z,1022.07
2019-01-04T10:30:29.078Z,1022.08
2019-01-04T10:31:29.050Z,1022.02
2019-01-04T10:32:29.023Z,1021.98
2019-01-04T10:33:28.997Z,1021.98
2019-01-04T10:34:28.970Z,1022.01
2019-01-04T10:35:28.945Z,1021.98
2019-01-04T10:36:28.918Z,1021.99
2019-01-04T10:37:28.892Z,1021.99
2019-01-04T10:38:28.865Z,1021.92
2019-01-04T10:39:28.839Z,1021.94
2019-01-04T10:40:28.812Z,1021.95
2019-01-04T10:41:28.791Z,1021.97
2019-01-04T10:42:28.766Z,1022.01
2019-01-04T10:43:28.736Z,1021.96
2019-01-04T10:44:28.708Z,1021.98
2019-01-04T10:45:28.683Z,1021.96
2019-01-04T10:46:28.656Z,1021.99
2019-01-04T10:47:28.631Z,1021.88
2019-01-04T10:48:28.606Z,1021.87
2019-01-04T10:49:28.578Z,1021.83
2019-01-04T10:50:28.556Z,1021.83
2019-01-04T10:51:28.526Z,1021.87
2019-01-04T10:52:28.498Z,1021.83
2019-01-04T10:53:28.475Z,1021.81
2019-01-04T10:54:28.448Z,1021.76
2019-01-04T10:55:28.424Z,1021.75
2019-01-04T10:56:28.394Z,1021.70
2019-01-04T10:57:28.370Z,1021.70
2019-01-04T10:58:28.343Z,1021.66
2019-01-04T10:59:28.318Z,1021.66
2019-01-04T11:00:28.290Z,1021.66
2019-01-04T11:01:28.266Z,1021.58
2019-01-04T11:02:28.239Z,1021.53
2019-01-04T11:03:28.212Z,1021.49
2019-01-04T11:04:28.190Z,1021.40
2019-01-04T11:05:28.161Z,1021.40
2019-01-04T11:06:28.134Z,1021.45
2019-01-04T11:07:28.110Z,1021.39
2019-01-04T11:08:28.083Z,1021.38
2019-01-04T11:09:28.057Z,1021.29
2019-01-04T11:10:28.032Z,1021.34
2019-01-04T11:11:28.006Z,1021.35
2019-01-04T11:12:27.978Z,1021.32
2019-01-04T11:13:27.952Z,1021.30
2019-01-04T11:14:27.926Z,1021.27
2019-01-04T11:15:27.903Z,1021.28
2019-01-04T11:16:27.874Z,1021.25
2019-01-04T11:17:27.849Z,1021.26
2019-01-04T11:18:27.824Z,1021.12
2019-01-04T11:19:27.799Z,1021.07
2019-01-04T11:20:27.771Z,1020.94
2019-01-04T11:21:27.750Z,1020.99
2019-01-04T11:22:27.846Z,1020.93
2019-01-04T11:23:27.693Z,1020.87
2019-01-04T11:24:27.668Z,1020.89
2019-01-04T11:25:27.642Z,1020.84
2019-01-04T11:26:27.616Z,1020.85
2019-01-04T11:27:27.594Z,1020.81
2019-01-04T11:28:27.563Z,1020.75
2019-01-04T11:29:27.538Z,1020.66
2019-01-04T11:30:27.512Z,1020.67
2019-01-04T11:31:27.487Z,1020.81
2019-01-04T11:32:27.459Z,1020.73
2019-01-04T11:33:27.435Z,1020.70
2019-01-04T11:34:27.410Z,1020.71
2019-01-04T11:35:27.384Z,1020.76
2019-01-04T11:36:27.358Z,1020.76
2019-01-04T11:37:27.332Z,1020.67
2019-01-04T11:38:27.306Z,1020.77
2019-01-04T11:39:27.280Z,1020.82
2019-01-04T11:40:27.254Z,1020.82
2019-01-04T11:41:27.226Z,1020.76
2019-01-04T11:42:27.202Z,1020.76
2019-01-04T11:43:27.178Z,1020.75
2019-01-04T11:44:27.149Z,1020.60
2019-01-04T11:45:27.124Z,1020.64
2019-01-04T11:46:27.097Z,1020.58
2019-01-04T11:47:27.073Z,1020.51
2019-01-04T11:48:27.045Z,1020.45
2019-01-04T11:49:27.020Z,1020.45
2019-01-04T11:50:26.993Z,1020.48
2019-01-04T11:51:26.969Z,1020.28
2019-01-04T11:52:31.176Z,1020.32
2019-01-04T11:53:26.915Z,1020.32
2019-01-04T11:54:26.890Z,1020.33
2019-01-04T11:55:26.864Z,1020.48
2019-01-04T11:56:26.839Z,1020.45
2019-01-04T11:57:26.812Z,1020.43
2019-01-04T11:58:26.786Z,1020.50
2019-01-04T11:59:26.763Z,1020.54
2019-01-04T12:00:26.734Z,1020.60
2019-01-04T12:01:26.708Z,1020.65
2019-01-04T12:02:26.683Z,1020.68
2019-01-04T12:03:26.657Z,1020.66
2019-01-04T12:04:26.636Z,1020.68
2019-01-04T12:05:26.604Z,1020.64